Lockwood, New York
Current Conditions -  °F | °C
As of 3:53 AM on Wednesday 22 Oct 2014 (Local Time) from KELM Reporting Station
Haze Haze  
Wind Chill: 44°   Ceiling: 500
Heat Index: 48°   Visibility: 3mi
Dew Point: 47°   Wind: 9mph
Humidity: 96%   Direction: 10°N
Pressure: 30"   Gusts: 20mph
Location:  42.09°N, 76.55°W
Report Text: KELM 220753Z AUTO 01008G17KT 3SM BR OVC005 09/08 A3000 RMK AO2 SLP162 T00890083
Loading
Personal Weather Stations






























Interactive Weather Map
Tropical Storm Tracking
New forecast layout! Learn more

10-Day Weather Forecast

Advertisements
Track Severe Weather on mobile